sensor_id;sensor_type;location;lat;lon;timestamp;temperature;humidity
45137;DHT22;30894;51.740;19.498;2023-06-10T00:02:22;17.20;71.70
45137;DHT22;30894;51.740;19.498;2023-06-10T00:04:48;17.30;71.80
45137;DHT22;30894;51.740;19.498;2023-06-10T00:07:17;17.30;71.70
45137;DHT22;30894;51.740;19.498;2023-06-10T00:09:43;17.30;71.60
45137;DHT22;30894;51.740;19.498;2023-06-10T00:12:09;17.40;71.70
45137;DHT22;30894;51.740;19.498;2023-06-10T00:14:37;17.40;71.70
45137;DHT22;30894;51.740;19.498;2023-06-10T00:17:05;17.30;71.70
45137;DHT22;30894;51.740;19.498;2023-06-10T00:19:36;17.30;71.80
45137;DHT22;30894;51.740;19.498;2023-06-10T00:22:04;17.30;71.80
45137;DHT22;30894;51.740;19.498;2023-06-10T00:24:30;17.40;71.90
45137;DHT22;30894;51.740;19.498;2023-06-10T00:26:56;17.40;71.80
45137;DHT22;30894;51.740;19.498;2023-06-10T00:29:22;17.40;71.70
45137;DHT22;30894;51.740;19.498;2023-06-10T00:31:48;17.40;71.60
45137;DHT22;30894;51.740;19.498;2023-06-10T00:34:14;17.40;72.30
45137;DHT22;30894;51.740;19.498;2023-06-10T00:36:41;17.50;71.70
45137;DHT22;30894;51.740;19.498;2023-06-10T00:39:08;17.50;71.60
45137;DHT22;30894;51.740;19.498;2023-06-10T00:41:34;17.50;71.50
45137;DHT22;30894;51.740;19.498;2023-06-10T00:44:00;17.60;71.50
45137;DHT22;30894;51.740;19.498;2023-06-10T00:46:27;17.50;71.40
45137;DHT22;30894;51.740;19.498;2023-06-10T00:48:53;17.60;71.40
45137;DHT22;30894;51.740;19.498;2023-06-10T00:51:20;17.60;71.40
45137;DHT22;30894;51.740;19.498;2023-06-10T00:53:47;17.60;71.40
45137;DHT22;30894;51.740;19.498;2023-06-10T00:56:13;17.60;71.40
45137;DHT22;30894;51.740;19.498;2023-06-10T00:58:40;17.60;71.40
45137;DHT22;30894;51.740;19.498;2023-06-10T01:01:06;17.60;71.40
45137;DHT22;30894;51.740;19.498;2023-06-10T01:03:32;17.60;71.50
45137;DHT22;30894;51.740;19.498;2023-06-10T01:08:55;17.60;71.70
45137;DHT22;30894;51.740;19.498;2023-06-10T01:11:33;17.60;71.70
45137;DHT22;30894;51.740;19.498;2023-06-10T01:14:02;17.60;71.70
45137;DHT22;30894;51.740;19.498;2023-06-10T01:16:34;17.50;71.70
45137;DHT22;30894;51.740;19.498;2023-06-10T01:19:03;17.50;71.70
45137;DHT22;30894;51.740;19.498;2023-06-10T01:21:29;17.50;71.80
45137;DHT22;30894;51.740;19.498;2023-06-10T01:23:56;17.40;72.00
45137;DHT22;30894;51.740;19.498;2023-06-10T01:26:28;17.30;72.30
45137;DHT22;30894;51.740;19.498;2023-06-10T01:29:06;17.10;72.70
45137;DHT22;30894;51.740;19.498;2023-06-10T01:34:14;16.90;73.30
45137;DHT22;30894;51.740;19.498;2023-06-10T01:36:47;16.90;73.50
45137;DHT22;30894;51.740;19.498;2023-06-10T01:39:22;16.80;73.70
45137;DHT22;30894;51.740;19.498;2023-06-10T01:41:49;16.70;73.80
45137;DHT22;30894;51.740;19.498;2023-06-10T01:44:19;16.70;74.00
45137;DHT22;30894;51.740;19.498;2023-06-10T01:46:46;16.70;74.10
45137;DHT22;30894;51.740;19.498;2023-06-10T01:49:12;16.60;74.10
45137;DHT22;30894;51.740;19.498;2023-06-10T01:51:39;16.60;74.20
45137;DHT22;30894;51.740;19.498;2023-06-10T01:54:05;16.60;74.20
45137;DHT22;30894;51.740;19.498;2023-06-10T01:56:32;16.60;74.40
45137;DHT22;30894;51.740;19.498;2023-06-10T01:58:58;16.50;74.30
45137;DHT22;30894;51.740;19.498;2023-06-10T02:01:26;16.50;74.40
45137;DHT22;30894;51.740;19.498;2023-06-10T02:03:52;16.50;74.40
45137;DHT22;30894;51.740;19.498;2023-06-10T02:06:18;16.60;74.40
45137;DHT22;30894;51.740;19.498;2023-06-10T02:08:45;16.60;74.20
45137;DHT22;30894;51.740;19.498;2023-06-10T02:11:11;16.60;74.10
45137;DHT22;30894;51.740;19.498;2023-06-10T02:13:38;16.70;74.10
45137;DHT22;30894;51.740;19.498;2023-06-10T02:16:07;16.70;74.10
45137;DHT22;30894;51.740;19.498;2023-06-10T02:18:33;16.70;74.00
45137;DHT22;30894;51.740;19.498;2023-06-10T02:20:59;16.70;73.90
45137;DHT22;30894;51.740;19.498;2023-06-10T02:23:25;16.70;73.90
45137;DHT22;30894;51.740;19.498;2023-06-10T02:25:51;16.70;73.90
45137;DHT22;30894;51.740;19.498;2023-06-10T02:28:17;16.70;74.00
45137;DHT22;30894;51.740;19.498;2023-06-10T02:30:43;16.70;74.00
45137;DHT22;30894;51.740;19.498;2023-06-10T02:33:09;16.70;74.10
45137;DHT22;30894;51.740;19.498;2023-06-10T02:35:39;16.60;74.10
45137;DHT22;30894;51.740;19.498;2023-06-10T02:38:05;16.60;74.20
45137;DHT22;30894;51.740;19.498;2023-06-10T02:40:33;16.60;74.30
45137;DHT22;30894;51.740;19.498;2023-06-10T02:42:59;16.60;74.30
45137;DHT22;30894;51.740;19.498;2023-06-10T02:45:25;16.50;74.40
45137;DHT22;30894;51.740;19.498;2023-06-10T02:47:51;16.50;74.40
45137;DHT22;30894;51.740;19.498;2023-06-10T02:50:18;16.50;74.50
45137;DHT22;30894;51.740;19.498;2023-06-10T02:52:44;16.50;74.50
45137;DHT22;30894;51.740;19.498;2023-06-10T02:55:11;16.50;74.50
45137;DHT22;30894;51.740;19.498;2023-06-10T02:57:37;16.50;74.60
45137;DHT22;30894;51.740;19.498;2023-06-10T03:00:03;16.50;74.60
45137;DHT22;30894;51.740;19.498;2023-06-10T03:02:36;16.60;74.60
45137;DHT22;30894;51.740;19.498;2023-06-10T03:05:05;16.60;74.60
45137;DHT22;30894;51.740;19.498;2023-06-10T03:07:36;16.60;74.50
45137;DHT22;30894;51.740;19.498;2023-06-10T03:10:03;16.60;74.40
45137;DHT22;30894;51.740;19.498;2023-06-10T03:12:29;16.70;74.40
45137;DHT22;30894;51.740;19.498;2023-06-10T03:14:55;16.80;74.30
45137;DHT22;30894;51.740;19.498;2023-06-10T03:17:21;16.80;74.30
45137;DHT22;30894;51.740;19.498;2023-06-10T03:19:47;16.80;74.30
45137;DHT22;30894;51.740;19.498;2023-06-10T03:22:15;16.80;74.20
45137;DHT22;30894;51.740;19.498;2023-06-10T03:24:42;16.80;74.30
45137;DHT22;30894;51.740;19.498;2023-06-10T03:27:12;16.80;74.40
45137;DHT22;30894;51.740;19.498;2023-06-10T03:29:39;16.80;74.40
45137;DHT22;30894;51.740;19.498;2023-06-10T03:32:06;16.80;74.40
45137;DHT22;30894;51.740;19.498;2023-06-10T03:34:32;16.90;74.40
45137;DHT22;30894;51.740;19.498;2023-06-10T03:36:59;17.00;74.30
45137;DHT22;30894;51.740;19.498;2023-06-10T03:39:25;17.00;74.20
45137;DHT22;30894;51.740;19.498;2023-06-10T03:41:55;17.10;74.00
45137;DHT22;30894;51.740;19.498;2023-06-10T03:44:23;17.20;73.80
45137;DHT22;30894;51.740;19.498;2023-06-10T03:46:50;17.30;73.60
45137;DHT22;30894;51.740;19.498;2023-06-10T03:49:17;17.50;73.40
45137;DHT22;30894;51.740;19.498;2023-06-10T03:51:43;17.60;73.30
45137;DHT22;30894;51.740;19.498;2023-06-10T03:54:09;17.70;73.10
45137;DHT22;30894;51.740;19.498;2023-06-10T03:56:35;17.80;72.90
45137;DHT22;30894;51.740;19.498;2023-06-10T03:59:02;17.90;72.80
45137;DHT22;30894;51.740;19.498;2023-06-10T04:01:28;17.90;72.70
45137;DHT22;30894;51.740;19.498;2023-06-10T04:04:09;17.90;72.80
45137;DHT22;30894;51.740;19.498;2023-06-10T04:06:36;17.80;73.00
45137;DHT22;30894;51.740;19.498;2023-06-10T04:09:03;17.80;73.20
45137;DHT22;30894;51.740;19.498;2023-06-10T04:11:29;17.70;73.40
45137;DHT22;30894;51.740;19.498;2023-06-10T04:13:55;17.60;73.60
45137;DHT22;30894;51.740;19.498;2023-06-10T04:16:21;17.60;73.80
45137;DHT22;30894;51.740;19.498;2023-06-10T04:18:47;17.50;74.00
45137;DHT22;30894;51.740;19.498;2023-06-10T04:21:13;17.40;74.20
45137;DHT22;30894;51.740;19.498;2023-06-10T04:23:39;17.40;74.30
45137;DHT22;30894;51.740;19.498;2023-06-10T04:26:05;17.40;74.50
45137;DHT22;30894;51.740;19.498;2023-06-10T04:28:32;17.40;74.70
45137;DHT22;30894;51.740;19.498;2023-06-10T04:30:59;17.30;74.70
45137;DHT22;30894;51.740;19.498;2023-06-10T04:33:25;17.40;74.80
45137;DHT22;30894;51.740;19.498;2023-06-10T04:35:51;17.30;74.80
45137;DHT22;30894;51.740;19.498;2023-06-10T04:38:17;17.60;74.60
45137;DHT22;30894;51.740;19.498;2023-06-10T04:40:43;17.80;74.10
45137;DHT22;30894;51.740;19.498;2023-06-10T04:43:10;17.90;73.90
45137;DHT22;30894;51.740;19.498;2023-06-10T04:45:36;17.90;73.80
45137;DHT22;30894;51.740;19.498;2023-06-10T04:48:03;17.80;73.80
45137;DHT22;30894;51.740;19.498;2023-06-10T04:50:29;17.90;73.90
45137;DHT22;30894;51.740;19.498;2023-06-10T04:52:55;17.90;74.00
45137;DHT22;30894;51.740;19.498;2023-06-10T04:55:24;17.80;74.10
45137;DHT22;30894;51.740;19.498;2023-06-10T04:57:51;17.80;74.10
45137;DHT22;30894;51.740;19.498;2023-06-10T05:00:17;17.90;74.10
45137;DHT22;30894;51.740;19.498;2023-06-10T05:02:43;18.10;73.90
45137;DHT22;30894;51.740;19.498;2023-06-10T05:05:11;18.20;73.50
45137;DHT22;30894;51.740;19.498;2023-06-10T05:07:36;18.50;73.10
45137;DHT22;30894;51.740;19.498;2023-06-10T05:10:03;18.70;72.60
45137;DHT22;30894;51.740;19.498;2023-06-10T05:12:29;18.90;72.10
45137;DHT22;30894;51.740;19.498;2023-06-10T05:14:56;19.20;71.60
45137;DHT22;30894;51.740;19.498;2023-06-10T05:17:22;19.50;71.00
45137;DHT22;30894;51.740;19.498;2023-06-10T05:19:48;19.80;71.10
45137;DHT22;30894;51.740;19.498;2023-06-10T05:22:14;20.00;69.80
45137;DHT22;30894;51.740;19.498;2023-06-10T05:24:42;20.20;69.40
45137;DHT22;30894;51.740;19.498;2023-06-10T05:27:09;20.50;69.10
45137;DHT22;30894;51.740;19.498;2023-06-10T05:29:36;20.80;68.70
45137;DHT22;30894;51.740;19.498;2023-06-10T05:32:03;21.10;68.20
45137;DHT22;30894;51.740;19.498;2023-06-10T05:34:30;21.30;68.30
45137;DHT22;30894;51.740;19.498;2023-06-10T05:36:56;21.40;67.50
45137;DHT22;30894;51.740;19.498;2023-06-10T05:39:23;21.40;67.50
45137;DHT22;30894;51.740;19.498;2023-06-10T05:41:49;21.40;67.50
45137;DHT22;30894;51.740;19.498;2023-06-10T05:44:15;21.80;67.20
45137;DHT22;30894;51.740;19.498;2023-06-10T05:46:41;22.70;65.80
45137;DHT22;30894;51.740;19.498;2023-06-10T05:49:07;23.70;64.00
45137;DHT22;30894;51.740;19.498;2023-06-10T05:51:34;24.50;62.70
45137;DHT22;30894;51.740;19.498;2023-06-10T05:54:01;25.10;61.60
45137;DHT22;30894;51.740;19.498;2023-06-10T05:56:27;25.70;60.60
45137;DHT22;30894;51.740;19.498;2023-06-10T05:58:53;26.20;60.00
45137;DHT22;30894;51.740;19.498;2023-06-10T06:01:19;26.40;59.60
45137;DHT22;30894;51.740;19.498;2023-06-10T06:03:45;26.60;59.30
45137;DHT22;30894;51.740;19.498;2023-06-10T06:06:11;26.80;59.10
45137;DHT22;30894;51.740;19.498;2023-06-10T06:08:38;27.10;58.90
45137;DHT22;30894;51.740;19.498;2023-06-10T06:11:04;27.30;58.60
45137;DHT22;30894;51.740;19.498;2023-06-10T06:13:30;27.60;58.30
45137;DHT22;30894;51.740;19.498;2023-06-10T06:16:59;27.90;57.90
45137;DHT22;30894;51.740;19.498;2023-06-10T06:19:15;28.10;57.60
45137;DHT22;30894;51.740;19.498;2023-06-10T06:21:41;28.60;57.30
45137;DHT22;30894;51.740;19.498;2023-06-10T06:24:07;29.00;56.90
45137;DHT22;30894;51.740;19.498;2023-06-10T06:26:34;29.50;56.40
45137;DHT22;30894;51.740;19.498;2023-06-10T06:29:00;30.00;56.00
45137;DHT22;30894;51.740;19.498;2023-06-10T06:31:26;30.10;55.60
45137;DHT22;30894;51.740;19.498;2023-06-10T06:33:52;30.40;56.10
45137;DHT22;30894;51.740;19.498;2023-06-10T06:36:18;30.70;55.20
45137;DHT22;30894;51.740;19.498;2023-06-10T06:38:45;31.00;55.00
45137;DHT22;30894;51.740;19.498;2023-06-10T06:41:11;31.40;54.60
45137;DHT22;30894;51.740;19.498;2023-06-10T06:43:37;31.60;54.30
45137;DHT22;30894;51.740;19.498;2023-06-10T06:46:03;31.70;54.10
45137;DHT22;30894;51.740;19.498;2023-06-10T06:48:30;31.80;54.10
45137;DHT22;30894;51.740;19.498;2023-06-10T06:50:57;31.80;54.00
45137;DHT22;30894;51.740;19.498;2023-06-10T06:53:24;32.00;54.00
45137;DHT22;30894;51.740;19.498;2023-06-10T06:55:50;32.40;53.80
45137;DHT22;30894;51.740;19.498;2023-06-10T06:58:17;32.70;53.30
45137;DHT22;30894;51.740;19.498;2023-06-10T07:00:42;33.10;53.00
45137;DHT22;30894;51.740;19.498;2023-06-10T07:03:09;33.50;52.50
45137;DHT22;30894;51.740;19.498;2023-06-10T07:05:35;33.40;52.40
45137;DHT22;30894;51.740;19.498;2023-06-10T07:08:01;33.20;52.40
45137;DHT22;30894;51.740;19.498;2023-06-10T07:10:28;33.30;52.60
45137;DHT22;30894;51.740;19.498;2023-06-10T07:12:57;33.30;52.50
45137;DHT22;30894;51.740;19.498;2023-06-10T07:15:23;33.30;52.50
45137;DHT22;30894;51.740;19.498;2023-06-10T07:17:52;33.60;52.40
45137;DHT22;30894;51.740;19.498;2023-06-10T07:20:19;33.80;52.00
45137;DHT22;30894;51.740;19.498;2023-06-10T07:22:45;34.20;51.70
45137;DHT22;30894;51.740;19.498;2023-06-10T07:25:11;34.60;51.30
45137;DHT22;30894;51.740;19.498;2023-06-10T07:27:39;34.80;50.90
45137;DHT22;30894;51.740;19.498;2023-06-10T07:30:05;34.50;51.00
45137;DHT22;30894;51.740;19.498;2023-06-10T07:32:34;34.40;51.20
45137;DHT22;30894;51.740;19.498;2023-06-10T07:35:00;34.40;51.20
45137;DHT22;30894;51.740;19.498;2023-06-10T07:37:26;34.70;51.10
45137;DHT22;30894;51.740;19.498;2023-06-10T07:39:53;34.90;50.80
45137;DHT22;30894;51.740;19.498;2023-06-10T07:42:23;35.10;50.50
45137;DHT22;30894;51.740;19.498;2023-06-10T07:44:51;35.40;50.20
45137;DHT22;30894;51.740;19.498;2023-06-10T07:47:43;35.40;49.90
45137;DHT22;30894;51.740;19.498;2023-06-10T07:50:42;35.70;49.90
45137;DHT22;30894;51.740;19.498;2023-06-10T07:53:30;36.10;49.50
45137;DHT22;30894;51.740;19.498;2023-06-10T07:56:23;36.30;49.30
45137;DHT22;30894;51.740;19.498;2023-06-10T07:58:53;36.50;49.20
45137;DHT22;30894;51.740;19.498;2023-06-10T08:01:28;36.90;48.80
45137;DHT22;30894;51.740;19.498;2023-06-10T08:03:57;37.40;49.20
45137;DHT22;30894;51.740;19.498;2023-06-10T08:06:27;37.60;48.20
45137;DHT22;30894;51.740;19.498;2023-06-10T08:09:05;38.00;47.90
45137;DHT22;30894;51.740;19.498;2023-06-10T08:12:39;38.20;47.60
45137;DHT22;30894;51.740;19.498;2023-06-10T08:15:41;38.60;47.50
45137;DHT22;30894;51.740;19.498;2023-06-10T08:18:08;38.90;47.20
45137;DHT22;30894;51.740;19.498;2023-06-10T08:20:34;39.20;47.10
45137;DHT22;30894;51.740;19.498;2023-06-10T08:23:00;39.50;46.70
45137;DHT22;30894;51.740;19.498;2023-06-10T08:25:27;39.60;46.50
45137;DHT22;30894;51.740;19.498;2023-06-10T08:27:53;39.60;46.30
45137;DHT22;30894;51.740;19.498;2023-06-10T08:30:22;39.50;46.40
45137;DHT22;30894;51.740;19.498;2023-06-10T08:32:53;39.40;46.30
45137;DHT22;30894;51.740;19.498;2023-06-10T08:35:19;39.50;46.30
45137;DHT22;30894;51.740;19.498;2023-06-10T08:37:46;39.70;46.20
45137;DHT22;30894;51.740;19.498;2023-06-10T08:40:12;39.90;46.00
45137;DHT22;30894;51.740;19.498;2023-06-10T08:45:22;40.00;45.40
45137;DHT22;30894;51.740;19.498;2023-06-10T08:47:53;40.10;45.40
45137;DHT22;30894;51.740;19.498;2023-06-10T08:50:19;40.40;45.20
45137;DHT22;30894;51.740;19.498;2023-06-10T08:52:48;40.70;45.10
45137;DHT22;30894;51.740;19.498;2023-06-10T08:55:23;40.90;44.70
45137;DHT22;30894;51.740;19.498;2023-06-10T08:57:54;41.00;44.50
45137;DHT22;30894;51.740;19.498;2023-06-10T09:00:22;41.00;44.40
45137;DHT22;30894;51.740;19.498;2023-06-10T09:02:52;41.00;44.40
45137;DHT22;30894;51.740;19.498;2023-06-10T09:05:22;40.90;44.50
45137;DHT22;30894;51.740;19.498;2023-06-10T09:07:49;40.60;44.70
45137;DHT22;30894;51.740;19.498;2023-06-10T09:10:17;40.40;45.00
45137;DHT22;30894;51.740;19.498;2023-06-10T09:12:44;40.20;44.80
45137;DHT22;30894;51.740;19.498;2023-06-10T09:15:10;40.40;44.80
45137;DHT22;30894;51.740;19.498;2023-06-10T09:17:38;40.40;44.60
45137;DHT22;30894;51.740;19.498;2023-06-10T09:20:10;40.20;44.40
45137;DHT22;30894;51.740;19.498;2023-06-10T09:22:37;40.30;44.40
45137;DHT22;30894;51.740;19.498;2023-06-10T09:25:06;40.50;44.20
45137;DHT22;30894;51.740;19.498;2023-06-10T09:28:04;40.50;44.00
45137;DHT22;30894;51.740;19.498;2023-06-10T09:30:34;40.40;43.90
45137;DHT22;30894;51.740;19.498;2023-06-10T09:33:02;40.50;43.80
45137;DHT22;30894;51.740;19.498;2023-06-10T09:35:45;40.70;43.40
45137;DHT22;30894;51.740;19.498;2023-06-10T09:38:15;41.00;43.00
45137;DHT22;30894;51.740;19.498;2023-06-10T09:40:50;41.00;42.80
45137;DHT22;30894;51.740;19.498;2023-06-10T09:43:17;41.50;42.60
45137;DHT22;30894;51.740;19.498;2023-06-10T09:45:44;41.90;42.20
45137;DHT22;30894;51.740;19.498;2023-06-10T09:48:10;42.10;41.90
45137;DHT22;30894;51.740;19.498;2023-06-10T09:50:43;42.20;41.80
45137;DHT22;30894;51.740;19.498;2023-06-10T09:53:13;42.30;41.80
45137;DHT22;30894;51.740;19.498;2023-06-10T09:55:41;42.40;41.60
45137;DHT22;30894;51.740;19.498;2023-06-10T09:58:08;42.60;41.40
45137;DHT22;30894;51.740;19.498;2023-06-10T10:00:34;42.60;41.10
45137;DHT22;30894;51.740;19.498;2023-06-10T10:03:01;42.50;41.10
45137;DHT22;30894;51.740;19.498;2023-06-10T10:05:27;42.70;41.00
45137;DHT22;30894;51.740;19.498;2023-06-10T10:07:58;43.00;40.60
45137;DHT22;30894;51.740;19.498;2023-06-10T10:10:28;43.50;40.50
45137;DHT22;30894;51.740;19.498;2023-06-10T10:12:58;44.00;40.10
45137;DHT22;30894;51.740;19.498;2023-06-10T10:15:29;43.60;40.10
45137;DHT22;30894;51.740;19.498;2023-06-10T10:18:09;42.80;40.60
45137;DHT22;30894;51.740;19.498;2023-06-10T10:20:47;41.80;42.00
45137;DHT22;30894;51.740;19.498;2023-06-10T10:23:35;41.60;41.60
45137;DHT22;30894;51.740;19.498;2023-06-10T10:26:17;41.90;41.40
45137;DHT22;30894;51.740;19.498;2023-06-10T10:31:35;42.60;40.70
45137;DHT22;30894;51.740;19.498;2023-06-10T10:34:06;43.10;40.30
45137;DHT22;30894;51.740;19.498;2023-06-10T10:36:33;43.20;40.40
45137;DHT22;30894;51.740;19.498;2023-06-10T10:39:05;42.90;39.80
45137;DHT22;30894;51.740;19.498;2023-06-10T10:41:34;43.10;39.70
45137;DHT22;30894;51.740;19.498;2023-06-10T10:44:02;43.30;39.50
45137;DHT22;30894;51.740;19.498;2023-06-10T10:46:42;43.60;39.40
45137;DHT22;30894;51.740;19.498;2023-06-10T10:49:15;43.70;39.20
45137;DHT22;30894;51.740;19.498;2023-06-10T10:51:58;43.40;39.10
45137;DHT22;30894;51.740;19.498;2023-06-10T10:54:37;43.00;39.30
45137;DHT22;30894;51.740;19.498;2023-06-10T11:00:01;42.50;39.50
45137;DHT22;30894;51.740;19.498;2023-06-10T11:02:35;42.60;39.10
45137;DHT22;30894;51.740;19.498;2023-06-10T11:05:18;42.60;38.80
45137;DHT22;30894;51.740;19.498;2023-06-10T11:07:58;42.80;38.30
45137;DHT22;30894;51.740;19.498;2023-06-10T11:10:35;43.10;38.50
45137;DHT22;30894;51.740;19.498;2023-06-10T11:13:33;43.60;38.40
45137;DHT22;30894;51.740;19.498;2023-06-10T11:16:08;43.80;38.00
45137;DHT22;30894;51.740;19.498;2023-06-10T11:19:00;43.80;37.80
45137;DHT22;30894;51.740;19.498;2023-06-10T11:22:27;44.00;37.90
45137;DHT22;30894;51.740;19.498;2023-06-10T11:25:41;44.20;37.50
45137;DHT22;30894;51.740;19.498;2023-06-10T11:28:20;44.20;37.40
45137;DHT22;30894;51.740;19.498;2023-06-10T11:30:57;44.20;37.30
45137;DHT22;30894;51.740;19.498;2023-06-10T11:33:24;44.40;37.10
45137;DHT22;30894;51.740;19.498;2023-06-10T11:35:51;44.40;37.00
45137;DHT22;30894;51.740;19.498;2023-06-10T11:38:18;44.50;36.90
45137;DHT22;30894;51.740;19.498;2023-06-10T11:40:50;44.30;36.70
45137;DHT22;30894;51.740;19.498;2023-06-10T11:43:18;44.30;36.70
45137;DHT22;30894;51.740;19.498;2023-06-10T11:45:46;44.40;36.70
45137;DHT22;30894;51.740;19.498;2023-06-10T11:48:13;44.30;36.60
45137;DHT22;30894;51.740;19.498;2023-06-10T11:50:39;44.20;36.50
45137;DHT22;30894;51.740;19.498;2023-06-10T11:53:08;44.30;36.40
45137;DHT22;30894;51.740;19.498;2023-06-10T11:55:50;44.20;36.40
45137;DHT22;30894;51.740;19.498;2023-06-10T11:58:19;44.20;36.40
45137;DHT22;30894;51.740;19.498;2023-06-10T12:00:49;44.00;36.10
45137;DHT22;30894;51.740;19.498;2023-06-10T12:03:21;43.80;36.00
45137;DHT22;30894;51.740;19.498;2023-06-10T12:06:08;43.60;36.00
45137;DHT22;30894;51.740;19.498;2023-06-10T12:08:41;43.20;36.20
45137;DHT22;30894;51.740;19.498;2023-06-10T12:11:16;43.30;35.90
45137;DHT22;30894;51.740;19.498;2023-06-10T12:13:47;43.50;36.00
45137;DHT22;30894;51.740;19.498;2023-06-10T12:16:15;43.50;35.90
45137;DHT22;30894;51.740;19.498;2023-06-10T12:18:51;43.50;35.80
45137;DHT22;30894;51.740;19.498;2023-06-10T12:21:27;43.50;35.50
45137;DHT22;30894;51.740;19.498;2023-06-10T12:26:41;43.20;35.30
45137;DHT22;30894;51.740;19.498;2023-06-10T12:29:23;43.30;35.20
45137;DHT22;30894;51.740;19.498;2023-06-10T12:34:34;43.20;34.80
45137;DHT22;30894;51.740;19.498;2023-06-10T12:37:06;43.00;35.10
45137;DHT22;30894;51.740;19.498;2023-06-10T12:39:42;42.90;34.90
45137;DHT22;30894;51.740;19.498;2023-06-10T12:42:09;42.80;34.90
45137;DHT22;30894;51.740;19.498;2023-06-10T12:44:39;42.70;34.80
45137;DHT22;30894;51.740;19.498;2023-06-10T12:47:10;42.60;35.00
45137;DHT22;30894;51.740;19.498;2023-06-10T12:49:40;42.60;34.80
45137;DHT22;30894;51.740;19.498;2023-06-10T12:52:07;42.30;34.70
45137;DHT22;30894;51.740;19.498;2023-06-10T12:54:34;42.00;34.70
45137;DHT22;30894;51.740;19.498;2023-06-10T12:57:04;41.80;34.80
45137;DHT22;30894;51.740;19.498;2023-06-10T12:59:31;41.80;34.90
45137;DHT22;30894;51.740;19.498;2023-06-10T13:01:57;41.70;34.60
45137;DHT22;30894;51.740;19.498;2023-06-10T13:04:24;41.60;34.50
45137;DHT22;30894;51.740;19.498;2023-06-10T13:06:53;41.60;34.70
45137;DHT22;30894;51.740;19.498;2023-06-10T13:09:22;41.70;34.40
45137;DHT22;30894;51.740;19.498;2023-06-10T13:11:54;41.70;34.50
45137;DHT22;30894;51.740;19.498;2023-06-10T13:14:21;41.70;34.40
45137;DHT22;30894;51.740;19.498;2023-06-10T13:16:47;41.70;34.50
45137;DHT22;30894;51.740;19.498;2023-06-10T13:19:14;41.50;34.20
45137;DHT22;30894;51.740;19.498;2023-06-10T13:21:40;41.40;34.30
45137;DHT22;30894;51.740;19.498;2023-06-10T13:24:07;41.30;34.30
45137;DHT22;30894;51.740;19.498;2023-06-10T13:26:33;41.10;34.50
45137;DHT22;30894;51.740;19.498;2023-06-10T13:29:00;40.60;34.60
45137;DHT22;30894;51.740;19.498;2023-06-10T13:31:29;40.30;34.90
45137;DHT22;30894;51.740;19.498;2023-06-10T13:33:56;40.30;34.90
45137;DHT22;30894;51.740;19.498;2023-06-10T13:36:22;40.50;35.00
45137;DHT22;30894;51.740;19.498;2023-06-10T13:38:51;40.60;34.90
45137;DHT22;30894;51.740;19.498;2023-06-10T13:41:24;40.70;34.60
45137;DHT22;30894;51.740;19.498;2023-06-10T13:43:51;40.80;35.40
45137;DHT22;30894;51.740;19.498;2023-06-10T13:46:17;40.60;34.70
45137;DHT22;30894;51.740;19.498;2023-06-10T13:48:43;40.50;34.70
45137;DHT22;30894;51.740;19.498;2023-06-10T13:51:09;40.50;34.50
45137;DHT22;30894;51.740;19.498;2023-06-10T13:53:37;40.30;34.50
45137;DHT22;30894;51.740;19.498;2023-06-10T13:56:04;40.20;34.50
45137;DHT22;30894;51.740;19.498;2023-06-10T13:58:31;40.20;34.50
45137;DHT22;30894;51.740;19.498;2023-06-10T14:00:58;40.10;34.50
45137;DHT22;30894;51.740;19.498;2023-06-10T14:03:24;39.90;34.50
45137;DHT22;30894;51.740;19.498;2023-06-10T14:06:02;39.50;34.70
45137;DHT22;30894;51.740;19.498;2023-06-10T14:08:29;39.20;34.70
45137;DHT22;30894;51.740;19.498;2023-06-10T14:10:55;39.10;34.90
45137;DHT22;30894;51.740;19.498;2023-06-10T14:13:23;39.20;34.90
45137;DHT22;30894;51.740;19.498;2023-06-10T14:15:49;39.00;34.80
45137;DHT22;30894;51.740;19.498;2023-06-10T14:18:15;38.90;34.80
45137;DHT22;30894;51.740;19.498;2023-06-10T14:20:41;38.70;34.90
45137;DHT22;30894;51.740;19.498;2023-06-10T14:23:08;38.60;34.80
45137;DHT22;30894;51.740;19.498;2023-06-10T14:25:34;38.40;35.00
45137;DHT22;30894;51.740;19.498;2023-06-10T14:28:00;38.20;35.00
45137;DHT22;30894;51.740;19.498;2023-06-10T14:30:26;38.10;35.00
45137;DHT22;30894;51.740;19.498;2023-06-10T14:32:52;38.10;35.00
45137;DHT22;30894;51.740;19.498;2023-06-10T14:35:21;38.00;34.90
45137;DHT22;30894;51.740;19.498;2023-06-10T14:37:48;38.00;34.90
45137;DHT22;30894;51.740;19.498;2023-06-10T14:40:14;37.90;34.80
45137;DHT22;30894;51.740;19.498;2023-06-10T14:42:40;37.60;34.90
45137;DHT22;30894;51.740;19.498;2023-06-10T14:45:07;37.10;35.00
45137;DHT22;30894;51.740;19.498;2023-06-10T14:47:35;36.80;35.30
45137;DHT22;30894;51.740;19.498;2023-06-10T14:50:01;36.60;35.30
45137;DHT22;30894;51.740;19.498;2023-06-10T14:52:27;36.20;35.50
45137;DHT22;30894;51.740;19.498;2023-06-10T14:54:53;36.00;35.70
45137;DHT22;30894;51.740;19.498;2023-06-10T14:57:19;35.80;35.90
45137;DHT22;30894;51.740;19.498;2023-06-10T14:59:45;35.50;36.10
45137;DHT22;30894;51.740;19.498;2023-06-10T15:02:14;35.30;36.30
45137;DHT22;30894;51.740;19.498;2023-06-10T15:04:40;35.20;36.40
45137;DHT22;30894;51.740;19.498;2023-06-10T15:07:06;35.00;36.40
45137;DHT22;30894;51.740;19.498;2023-06-10T15:09:32;34.80;36.50
45137;DHT22;30894;51.740;19.498;2023-06-10T15:11:59;34.70;36.50
45137;DHT22;30894;51.740;19.498;2023-06-10T15:14:25;34.60;36.50
45137;DHT22;30894;51.740;19.498;2023-06-10T15:16:51;34.40;36.60
45137;DHT22;30894;51.740;19.498;2023-06-10T15:19:21;34.30;36.60
45137;DHT22;30894;51.740;19.498;2023-06-10T15:21:47;34.10;36.60
45137;DHT22;30894;51.740;19.498;2023-06-10T15:24:14;34.00;36.70
45137;DHT22;30894;51.740;19.498;2023-06-10T15:26:40;33.80;36.80
45137;DHT22;30894;51.740;19.498;2023-06-10T15:29:06;33.60;36.90
45137;DHT22;30894;51.740;19.498;2023-06-10T15:31:33;33.30;37.00
45137;DHT22;30894;51.740;19.498;2023-06-10T15:33:59;32.80;37.10
45137;DHT22;30894;51.740;19.498;2023-06-10T15:36:26;32.50;37.30
45137;DHT22;30894;51.740;19.498;2023-06-10T15:38:53;32.20;37.50
45137;DHT22;30894;51.740;19.498;2023-06-10T15:41:20;32.00;37.80
45137;DHT22;30894;51.740;19.498;2023-06-10T15:43:47;31.80;37.90
45137;DHT22;30894;51.740;19.498;2023-06-10T15:46:13;31.60;38.10
45137;DHT22;30894;51.740;19.498;2023-06-10T15:48:39;31.50;38.10